sensor_id;sensor_type;location;lat;lon;timestamp;P1;durP1;ratioP1;P2;durP2;ratioP2
23632;SDS011;11993;48.748;9.166;2023-01-08T00:01:34;9.50;;;6.28;;
23632;SDS011;11993;48.748;9.166;2023-01-08T00:04:00;8.18;;;5.85;;
23632;SDS011;11993;48.748;9.166;2023-01-08T00:06:26;9.95;;;5.82;;
23632;SDS011;11993;48.748;9.166;2023-01-08T00:08:52;8.73;;;5.90;;
23632;SDS011;11993;48.748;9.166;2023-01-08T00:11:17;9.30;;;6.10;;
23632;SDS011;11993;48.748;9.166;2023-01-08T00:13:43;8.98;;;6.45;;
23632;SDS011;11993;48.748;9.166;2023-01-08T00:16:11;9.82;;;6.50;;
23632;SDS011;11993;48.748;9.166;2023-01-08T00:18:40;10.32;;;5.50;;
23632;SDS011;11993;48.748;9.166;2023-01-08T00:21:06;6.78;;;5.05;;
23632;SDS011;11993;48.748;9.166;2023-01-08T00:23:32;10.02;;;6.13;;
23632;SDS011;11993;48.748;9.166;2023-01-08T00:26:01;8.95;;;5.03;;
23632;SDS011;11993;48.748;9.166;2023-01-08T00:28:28;7.60;;;5.40;;
23632;SDS011;11993;48.748;9.166;2023-01-08T00:30:54;9.02;;;5.88;;
23632;SDS011;11993;48.748;9.166;2023-01-08T00:33:20;7.25;;;5.50;;
23632;SDS011;11993;48.748;9.166;2023-01-08T00:35:45;7.97;;;5.68;;
23632;SDS011;11993;48.748;9.166;2023-01-08T00:38:11;10.38;;;5.57;;
23632;SDS011;11993;48.748;9.166;2023-01-08T00:40:36;8.13;;;5.85;;
23632;SDS011;11993;48.748;9.166;2023-01-08T00:43:03;8.68;;;5.28;;
23632;SDS011;11993;48.748;9.166;2023-01-08T00:45:29;5.90;;;4.90;;
23632;SDS011;11993;48.748;9.166;2023-01-08T00:47:55;6.93;;;4.60;;
23632;SDS011;11993;48.748;9.166;2023-01-08T00:50:21;6.47;;;4.72;;
23632;SDS011;11993;48.748;9.166;2023-01-08T00:52:46;7.80;;;5.30;;
23632;SDS011;11993;48.748;9.166;2023-01-08T00:55:12;7.25;;;5.70;;
23632;SDS011;11993;48.748;9.166;2023-01-08T00:57:38;6.32;;;4.68;;
23632;SDS011;11993;48.748;9.166;2023-01-08T01:00:05;8.15;;;5.32;;
23632;SDS011;11993;48.748;9.166;2023-01-08T01:02:35;7.53;;;5.35;;
23632;SDS011;11993;48.748;9.166;2023-01-08T01:05:01;7.03;;;5.45;;
23632;SDS011;11993;48.748;9.166;2023-01-08T01:07:28;8.00;;;5.53;;
23632;SDS011;11993;48.748;9.166;2023-01-08T01:09:53;6.43;;;5.22;;
23632;SDS011;11993;48.748;9.166;2023-01-08T01:12:19;8.65;;;5.30;;
23632;SDS011;11993;48.748;9.166;2023-01-08T01:14:44;8.18;;;6.20;;
23632;SDS011;11993;48.748;9.166;2023-01-08T01:17:10;8.57;;;5.57;;
23632;SDS011;11993;48.748;9.166;2023-01-08T01:19:36;7.38;;;5.53;;
23632;SDS011;11993;48.748;9.166;2023-01-08T01:22:02;6.32;;;4.65;;
23632;SDS011;11993;48.748;9.166;2023-01-08T01:24:28;7.88;;;5.30;;
23632;SDS011;11993;48.748;9.166;2023-01-08T01:26:54;7.45;;;5.57;;
23632;SDS011;11993;48.748;9.166;2023-01-08T01:29:21;7.40;;;5.38;;
23632;SDS011;11993;48.748;9.166;2023-01-08T01:31:47;9.23;;;5.40;;
23632;SDS011;11993;48.748;9.166;2023-01-08T01:34:13;6.38;;;5.20;;
23632;SDS011;11993;48.748;9.166;2023-01-08T01:36:38;6.75;;;5.20;;
23632;SDS011;11993;48.748;9.166;2023-01-08T01:39:04;8.63;;;5.15;;
23632;SDS011;11993;48.748;9.166;2023-01-08T01:41:40;6.75;;;5.28;;
23632;SDS011;11993;48.748;9.166;2023-01-08T01:49:56;7.38;;;5.28;;
23632;SDS011;11993;48.748;9.166;2023-01-08T01:52:29;8.50;;;5.28;;
23632;SDS011;11993;48.748;9.166;2023-01-08T01:54:58;9.18;;;5.45;;
23632;SDS011;11993;48.748;9.166;2023-01-08T01:57:25;7.30;;;5.35;;
23632;SDS011;11993;48.748;9.166;2023-01-08T01:59:51;7.63;;;5.70;;
23632;SDS011;11993;48.748;9.166;2023-01-08T02:02:19;6.95;;;5.00;;
23632;SDS011;11993;48.748;9.166;2023-01-08T02:04:44;7.93;;;5.88;;
23632;SDS011;11993;48.748;9.166;2023-01-08T02:07:12;7.53;;;5.75;;
23632;SDS011;11993;48.748;9.166;2023-01-08T02:09:47;8.98;;;5.57;;
23632;SDS011;11993;48.748;9.166;2023-01-08T02:12:22;8.20;;;6.07;;
23632;SDS011;11993;48.748;9.166;2023-01-08T02:14:59;8.45;;;4.70;;
23632;SDS011;11993;48.748;9.166;2023-01-08T02:17:48;7.00;;;5.30;;
23632;SDS011;11993;48.748;9.166;2023-01-08T02:20:27;8.93;;;5.10;;
23632;SDS011;11993;48.748;9.166;2023-01-08T02:23:05;7.68;;;5.25;;
23632;SDS011;11993;48.748;9.166;2023-01-08T02:25:53;9.35;;;5.25;;
23632;SDS011;11993;48.748;9.166;2023-01-08T02:28:31;7.72;;;5.18;;
23632;SDS011;11993;48.748;9.166;2023-01-08T02:31:00;7.95;;;4.97;;
23632;SDS011;11993;48.748;9.166;2023-01-08T02:33:26;10.35;;;5.75;;
23632;SDS011;11993;48.748;9.166;2023-01-08T02:35:54;7.35;;;5.10;;
23632;SDS011;11993;48.748;9.166;2023-01-08T02:38:38;8.32;;;5.18;;
23632;SDS011;11993;48.748;9.166;2023-01-08T02:41:12;8.77;;;5.78;;
23632;SDS011;11993;48.748;9.166;2023-01-08T02:43:41;8.05;;;5.72;;
23632;SDS011;11993;48.748;9.166;2023-01-08T02:46:12;7.18;;;4.80;;
23632;SDS011;11993;48.748;9.166;2023-01-08T02:48:41;8.23;;;5.07;;
23632;SDS011;11993;48.748;9.166;2023-01-08T02:51:30;8.00;;;5.97;;
23632;SDS011;11993;48.748;9.166;2023-01-08T02:54:01;7.00;;;5.13;;
23632;SDS011;11993;48.748;9.166;2023-01-08T02:56:30;7.60;;;4.93;;
23632;SDS011;11993;48.748;9.166;2023-01-08T02:58:59;9.63;;;5.85;;
23632;SDS011;11993;48.748;9.166;2023-01-08T03:01:29;10.07;;;5.43;;
23632;SDS011;11993;48.748;9.166;2023-01-08T03:03:57;8.00;;;5.68;;
23632;SDS011;11993;48.748;9.166;2023-01-08T03:06:27;9.65;;;4.57;;
23632;SDS011;11993;48.748;9.166;2023-01-08T03:08:53;6.85;;;5.07;;
23632;SDS011;11993;48.748;9.166;2023-01-08T03:11:20;8.45;;;5.78;;
23632;SDS011;11993;48.748;9.166;2023-01-08T03:13:53;7.85;;;5.18;;
23632;SDS011;11993;48.748;9.166;2023-01-08T03:16:40;6.53;;;4.45;;
23632;SDS011;11993;48.748;9.166;2023-01-08T03:19:20;6.78;;;5.13;;
23632;SDS011;11993;48.748;9.166;2023-01-08T03:21:50;5.55;;;4.80;;
23632;SDS011;11993;48.748;9.166;2023-01-08T03:24:18;7.32;;;4.97;;
23632;SDS011;11993;48.748;9.166;2023-01-08T03:26:50;6.85;;;4.85;;
23632;SDS011;11993;48.748;9.166;2023-01-08T03:29:20;6.50;;;4.90;;
23632;SDS011;11993;48.748;9.166;2023-01-08T03:31:48;10.15;;;5.35;;
23632;SDS011;11993;48.748;9.166;2023-01-08T03:34:15;7.20;;;5.10;;
23632;SDS011;11993;48.748;9.166;2023-01-08T03:36:45;6.88;;;5.18;;
23632;SDS011;11993;48.748;9.166;2023-01-08T03:39:50;7.28;;;5.47;;
23632;SDS011;11993;48.748;9.166;2023-01-08T03:42:21;6.07;;;4.78;;
23632;SDS011;11993;48.748;9.166;2023-01-08T03:44:48;6.43;;;4.35;;
23632;SDS011;11993;48.748;9.166;2023-01-08T03:47:15;7.07;;;5.07;;
23632;SDS011;11993;48.748;9.166;2023-01-08T03:49:42;7.88;;;5.07;;
23632;SDS011;11993;48.748;9.166;2023-01-08T03:52:08;6.95;;;4.57;;
23632;SDS011;11993;48.748;9.166;2023-01-08T03:54:44;7.80;;;4.90;;
23632;SDS011;11993;48.748;9.166;2023-01-08T03:57:09;6.13;;;4.88;;
23632;SDS011;11993;48.748;9.166;2023-01-08T03:59:35;6.35;;;5.05;;
23632;SDS011;11993;48.748;9.166;2023-01-08T04:02:00;7.07;;;4.90;;
23632;SDS011;11993;48.748;9.166;2023-01-08T04:04:26;7.47;;;4.60;;
23632;SDS011;11993;48.748;9.166;2023-01-08T04:06:52;5.18;;;4.35;;
23632;SDS011;11993;48.748;9.166;2023-01-08T04:09:17;7.22;;;4.97;;
23632;SDS011;11993;48.748;9.166;2023-01-08T04:11:43;7.20;;;5.25;;
23632;SDS011;11993;48.748;9.166;2023-01-08T04:14:08;7.00;;;4.63;;
23632;SDS011;11993;48.748;9.166;2023-01-08T04:16:36;7.90;;;5.40;;
23632;SDS011;11993;48.748;9.166;2023-01-08T04:19:01;7.25;;;5.22;;
23632;SDS011;11993;48.748;9.166;2023-01-08T04:21:27;8.23;;;4.95;;
23632;SDS011;11993;48.748;9.166;2023-01-08T04:23:53;5.60;;;4.43;;
23632;SDS011;11993;48.748;9.166;2023-01-08T04:26:19;7.78;;;4.47;;
23632;SDS011;11993;48.748;9.166;2023-01-08T04:28:44;6.35;;;4.80;;
23632;SDS011;11993;48.748;9.166;2023-01-08T04:31:10;10.45;;;5.13;;
23632;SDS011;11993;48.748;9.166;2023-01-08T04:33:35;6.00;;;4.30;;
23632;SDS011;11993;48.748;9.166;2023-01-08T04:36:02;6.53;;;4.38;;
23632;SDS011;11993;48.748;9.166;2023-01-08T04:38:28;7.03;;;4.80;;
23632;SDS011;11993;48.748;9.166;2023-01-08T04:40:57;7.55;;;5.00;;
23632;SDS011;11993;48.748;9.166;2023-01-08T04:43:24;5.63;;;4.13;;
23632;SDS011;11993;48.748;9.166;2023-01-08T04:45:50;6.95;;;3.70;;
23632;SDS011;11993;48.748;9.166;2023-01-08T04:48:16;5.40;;;3.05;;
23632;SDS011;11993;48.748;9.166;2023-01-08T04:50:42;5.10;;;3.20;;
23632;SDS011;11993;48.748;9.166;2023-01-08T04:53:07;4.85;;;2.97;;
23632;SDS011;11993;48.748;9.166;2023-01-08T04:55:33;6.93;;;3.17;;
23632;SDS011;11993;48.748;9.166;2023-01-08T04:57:58;5.20;;;2.60;;
23632;SDS011;11993;48.748;9.166;2023-01-08T05:00:24;3.88;;;2.45;;
23632;SDS011;11993;48.748;9.166;2023-01-08T05:02:49;4.15;;;2.95;;
23632;SDS011;11993;48.748;9.166;2023-01-08T05:05:15;8.75;;;2.47;;
23632;SDS011;11993;48.748;9.166;2023-01-08T05:07:40;3.60;;;2.30;;
23632;SDS011;11993;48.748;9.166;2023-01-08T05:10:06;3.25;;;2.50;;
23632;SDS011;11993;48.748;9.166;2023-01-08T05:12:32;4.18;;;2.60;;
23632;SDS011;11993;48.748;9.166;2023-01-08T05:14:57;5.78;;;2.42;;
23632;SDS011;11993;48.748;9.166;2023-01-08T05:17:23;2.78;;;1.92;;
23632;SDS011;11993;48.748;9.166;2023-01-08T05:19:49;3.25;;;2.05;;
23632;SDS011;11993;48.748;9.166;2023-01-08T05:22:14;3.40;;;2.10;;
23632;SDS011;11993;48.748;9.166;2023-01-08T05:24:40;4.20;;;1.90;;
23632;SDS011;11993;48.748;9.166;2023-01-08T05:27:05;4.63;;;2.17;;
23632;SDS011;11993;48.748;9.166;2023-01-08T05:29:31;2.38;;;1.83;;
23632;SDS011;11993;48.748;9.166;2023-01-08T05:31:56;2.47;;;1.70;;
23632;SDS011;11993;48.748;9.166;2023-01-08T05:34:22;3.65;;;1.70;;
23632;SDS011;11993;48.748;9.166;2023-01-08T05:36:47;3.53;;;1.85;;
23632;SDS011;11993;48.748;9.166;2023-01-08T05:39:13;2.55;;;1.92;;
23632;SDS011;11993;48.748;9.166;2023-01-08T05:41:38;2.75;;;1.80;;
23632;SDS011;11993;48.748;9.166;2023-01-08T05:44:04;2.00;;;1.63;;
23632;SDS011;11993;48.748;9.166;2023-01-08T05:46:29;2.30;;;1.67;;
23632;SDS011;11993;48.748;9.166;2023-01-08T05:48:56;3.22;;;1.98;;
23632;SDS011;11993;48.748;9.166;2023-01-08T05:51:21;3.92;;;1.80;;
23632;SDS011;11993;48.748;9.166;2023-01-08T05:53:47;3.30;;;1.45;;
23632;SDS011;11993;48.748;9.166;2023-01-08T05:56:13;1.70;;;1.48;;
23632;SDS011;11993;48.748;9.166;2023-01-08T05:58:38;4.82;;;2.13;;
23632;SDS011;11993;48.748;9.166;2023-01-08T06:01:05;2.13;;;1.50;;
23632;SDS011;11993;48.748;9.166;2023-01-08T06:03:35;2.53;;;1.58;;
23632;SDS011;11993;48.748;9.166;2023-01-08T06:06:02;4.00;;;1.80;;
23632;SDS011;11993;48.748;9.166;2023-01-08T06:08:29;3.33;;;1.70;;
23632;SDS011;11993;48.748;9.166;2023-01-08T06:11:02;3.92;;;1.73;;
23632;SDS011;11993;48.748;9.166;2023-01-08T06:13:30;2.13;;;1.73;;
23632;SDS011;11993;48.748;9.166;2023-01-08T06:15:59;3.13;;;1.45;;
23632;SDS011;11993;48.748;9.166;2023-01-08T06:18:26;3.47;;;1.77;;
23632;SDS011;11993;48.748;9.166;2023-01-08T06:20:53;1.85;;;1.40;;
23632;SDS011;11993;48.748;9.166;2023-01-08T06:23:18;2.13;;;1.48;;
23632;SDS011;11993;48.748;9.166;2023-01-08T06:25:50;2.17;;;1.60;;
23632;SDS011;11993;48.748;9.166;2023-01-08T06:28:19;1.80;;;1.50;;
23632;SDS011;11993;48.748;9.166;2023-01-08T06:30:45;4.80;;;1.85;;
23632;SDS011;11993;48.748;9.166;2023-01-08T06:33:10;1.65;;;1.40;;
23632;SDS011;11993;48.748;9.166;2023-01-08T06:35:36;2.83;;;1.50;;
23632;SDS011;11993;48.748;9.166;2023-01-08T06:38:01;2.03;;;1.23;;
23632;SDS011;11993;48.748;9.166;2023-01-08T06:40:27;1.80;;;1.25;;
23632;SDS011;11993;48.748;9.166;2023-01-08T06:42:52;2.67;;;1.30;;
23632;SDS011;11993;48.748;9.166;2023-01-08T06:45:18;2.92;;;1.40;;
23632;SDS011;11993;48.748;9.166;2023-01-08T06:47:44;1.70;;;1.50;;
23632;SDS011;11993;48.748;9.166;2023-01-08T06:50:10;1.38;;;1.27;;
23632;SDS011;11993;48.748;9.166;2023-01-08T06:52:36;3.47;;;1.60;;
23632;SDS011;11993;48.748;9.166;2023-01-08T06:55:02;1.83;;;1.48;;
23632;SDS011;11993;48.748;9.166;2023-01-08T06:57:29;2.17;;;1.40;;
23632;SDS011;11993;48.748;9.166;2023-01-08T06:59:55;2.47;;;1.50;;
23632;SDS011;11993;48.748;9.166;2023-01-08T07:02:20;2.58;;;1.17;;
23632;SDS011;11993;48.748;9.166;2023-01-08T07:04:46;4.28;;;0.98;;
23632;SDS011;11993;48.748;9.166;2023-01-08T07:07:12;1.48;;;1.10;;
23632;SDS011;11993;48.748;9.166;2023-01-08T07:09:39;2.75;;;1.20;;
23632;SDS011;11993;48.748;9.166;2023-01-08T07:12:05;1.98;;;1.00;;
23632;SDS011;11993;48.748;9.166;2023-01-08T07:14:35;2.22;;;1.35;;
23632;SDS011;11993;48.748;9.166;2023-01-08T07:17:01;1.50;;;1.20;;
23632;SDS011;11993;48.748;9.166;2023-01-08T07:19:26;1.30;;;1.20;;
23632;SDS011;11993;48.748;9.166;2023-01-08T07:21:52;1.13;;;1.02;;
23632;SDS011;11993;48.748;9.166;2023-01-08T07:24:17;2.67;;;1.45;;
23632;SDS011;11993;48.748;9.166;2023-01-08T07:26:43;1.85;;;1.40;;
23632;SDS011;11993;48.748;9.166;2023-01-08T07:29:08;1.90;;;1.10;;
23632;SDS011;11993;48.748;9.166;2023-01-08T07:31:34;3.13;;;1.10;;
23632;SDS011;11993;48.748;9.166;2023-01-08T07:33:59;4.10;;;1.50;;
23632;SDS011;11993;48.748;9.166;2023-01-08T07:36:25;2.55;;;1.02;;
23632;SDS011;11993;48.748;9.166;2023-01-08T07:38:50;2.05;;;1.25;;
23632;SDS011;11993;48.748;9.166;2023-01-08T07:41:16;1.25;;;1.05;;
23632;SDS011;11993;48.748;9.166;2023-01-08T07:43:42;1.45;;;1.13;;
23632;SDS011;11993;48.748;9.166;2023-01-08T07:46:08;1.58;;;1.08;;
23632;SDS011;11993;48.748;9.166;2023-01-08T07:48:34;1.38;;;1.27;;
23632;SDS011;11993;48.748;9.166;2023-01-08T07:51:03;2.30;;;1.45;;
23632;SDS011;11993;48.748;9.166;2023-01-08T07:53:30;2.20;;;1.15;;
23632;SDS011;11993;48.748;9.166;2023-01-08T07:56:00;6.10;;;1.70;;
23632;SDS011;11993;48.748;9.166;2023-01-08T07:58:30;2.15;;;1.40;;
23632;SDS011;11993;48.748;9.166;2023-01-08T08:00:55;1.52;;;1.17;;
23632;SDS011;11993;48.748;9.166;2023-01-08T08:03:22;5.45;;;1.55;;
23632;SDS011;11993;48.748;9.166;2023-01-08T08:05:48;3.05;;;1.33;;
23632;SDS011;11993;48.748;9.166;2023-01-08T08:08:13;3.10;;;1.30;;
23632;SDS011;11993;48.748;9.166;2023-01-08T08:10:39;2.20;;;1.20;;
23632;SDS011;11993;48.748;9.166;2023-01-08T08:13:05;1.90;;;1.17;;
23632;SDS011;11993;48.748;9.166;2023-01-08T08:15:31;3.05;;;1.40;;
23632;SDS011;11993;48.748;9.166;2023-01-08T08:17:58;2.17;;;1.40;;
23632;SDS011;11993;48.748;9.166;2023-01-08T08:20:24;3.50;;;1.23;;
23632;SDS011;11993;48.748;9.166;2023-01-08T08:22:50;1.80;;;1.40;;
23632;SDS011;11993;48.748;9.166;2023-01-08T08:25:17;1.45;;;1.20;;
23632;SDS011;11993;48.748;9.166;2023-01-08T08:27:43;1.50;;;1.40;;
23632;SDS011;11993;48.748;9.166;2023-01-08T08:30:10;2.10;;;1.45;;
23632;SDS011;11993;48.748;9.166;2023-01-08T08:32:36;1.40;;;1.30;;
23632;SDS011;11993;48.748;9.166;2023-01-08T08:35:02;3.35;;;1.70;;
23632;SDS011;11993;48.748;9.166;2023-01-08T08:37:28;1.70;;;1.30;;
23632;SDS011;11993;48.748;9.166;2023-01-08T08:39:54;2.60;;;1.60;;
23632;SDS011;11993;48.748;9.166;2023-01-08T08:42:19;2.15;;;1.60;;
23632;SDS011;11993;48.748;9.166;2023-01-08T08:44:45;1.58;;;1.30;;
23632;SDS011;11993;48.748;9.166;2023-01-08T08:47:11;2.10;;;1.30;;
23632;SDS011;11993;48.748;9.166;2023-01-08T08:49:36;5.10;;;1.40;;
23632;SDS011;11993;48.748;9.166;2023-01-08T08:52:03;2.00;;;1.35;;
23632;SDS011;11993;48.748;9.166;2023-01-08T08:54:29;3.55;;;1.60;;
23632;SDS011;11993;48.748;9.166;2023-01-08T08:56:54;1.95;;;1.52;;
23632;SDS011;11993;48.748;9.166;2023-01-08T08:59:20;2.13;;;1.42;;
23632;SDS011;11993;48.748;9.166;2023-01-08T09:01:45;5.70;;;1.73;;
23632;SDS011;11993;48.748;9.166;2023-01-08T09:04:11;2.72;;;1.35;;
23632;SDS011;11993;48.748;9.166;2023-01-08T09:06:36;2.72;;;1.33;;
23632;SDS011;11993;48.748;9.166;2023-01-08T09:09:02;1.67;;;1.38;;
23632;SDS011;11993;48.748;9.166;2023-01-08T09:11:28;2.65;;;1.48;;
23632;SDS011;11993;48.748;9.166;2023-01-08T09:13:53;3.47;;;1.65;;
23632;SDS011;11993;48.748;9.166;2023-01-08T09:16:19;3.42;;;1.70;;
23632;SDS011;11993;48.748;9.166;2023-01-08T09:18:44;2.88;;;1.83;;
23632;SDS011;11993;48.748;9.166;2023-01-08T09:21:11;2.75;;;1.98;;
23632;SDS011;11993;48.748;9.166;2023-01-08T09:23:36;1.95;;;1.58;;
23632;SDS011;11993;48.748;9.166;2023-01-08T09:26:03;5.13;;;1.85;;
23632;SDS011;11993;48.748;9.166;2023-01-08T09:28:29;2.15;;;1.42;;
23632;SDS011;11993;48.748;9.166;2023-01-08T09:30:55;2.72;;;1.60;;
23632;SDS011;11993;48.748;9.166;2023-01-08T09:33:24;3.17;;;1.50;;
23632;SDS011;11993;48.748;9.166;2023-01-08T09:35:49;4.10;;;1.45;;
23632;SDS011;11993;48.748;9.166;2023-01-08T09:38:15;2.17;;;1.58;;
23632;SDS011;11993;48.748;9.166;2023-01-08T09:41:03;1.67;;;1.48;;
23632;SDS011;11993;48.748;9.166;2023-01-08T09:43:37;2.83;;;2.00;;
23632;SDS011;11993;48.748;9.166;2023-01-08T09:46:07;1.70;;;1.50;;
23632;SDS011;11993;48.748;9.166;2023-01-08T09:48:36;2.85;;;1.60;;
23632;SDS011;11993;48.748;9.166;2023-01-08T09:51:14;4.20;;;1.40;;
23632;SDS011;11993;48.748;9.166;2023-01-08T09:53:41;2.67;;;1.52;;
23632;SDS011;11993;48.748;9.166;2023-01-08T09:56:16;2.40;;;1.45;;
23632;SDS011;11993;48.748;9.166;2023-01-08T10:01:21;2.45;;;1.40;;
23632;SDS011;11993;48.748;9.166;2023-01-08T10:04:02;2.78;;;1.48;;
23632;SDS011;11993;48.748;9.166;2023-01-08T10:06:29;2.75;;;1.45;;
23632;SDS011;11993;48.748;9.166;2023-01-08T10:08:55;3.75;;;1.50;;
23632;SDS011;11993;48.748;9.166;2023-01-08T10:11:21;4.32;;;1.80;;
23632;SDS011;11993;48.748;9.166;2023-01-08T10:13:51;2.53;;;1.40;;
23632;SDS011;11993;48.748;9.166;2023-01-08T10:16:28;1.60;;;1.20;;
23632;SDS011;11993;48.748;9.166;2023-01-08T10:18:57;2.58;;;1.40;;
23632;SDS011;11993;48.748;9.166;2023-01-08T10:21:27;1.92;;;1.35;;
23632;SDS011;11993;48.748;9.166;2023-01-08T10:23:55;4.55;;;1.30;;
23632;SDS011;11993;48.748;9.166;2023-01-08T10:26:28;2.67;;;1.23;;
23632;SDS011;11993;48.748;9.166;2023-01-08T10:29:06;2.15;;;1.55;;
23632;SDS011;11993;48.748;9.166;2023-01-08T10:31:47;1.67;;;1.20;;
23632;SDS011;11993;48.748;9.166;2023-01-08T10:34:27;2.50;;;1.40;;
23632;SDS011;11993;48.748;9.166;2023-01-08T10:36:57;1.70;;;1.10;;
23632;SDS011;11993;48.748;9.166;2023-01-08T10:39:24;2.13;;;1.35;;
23632;SDS011;11993;48.748;9.166;2023-01-08T10:41:52;1.23;;;1.00;;
23632;SDS011;11993;48.748;9.166;2023-01-08T10:44:21;3.03;;;1.40;;
23632;SDS011;11993;48.748;9.166;2023-01-08T10:46:53;1.77;;;1.25;;
23632;SDS011;11993;48.748;9.166;2023-01-08T10:49:25;1.88;;;1.10;;
23632;SDS011;11993;48.748;9.166;2023-01-08T10:51:52;2.35;;;1.20;;
23632;SDS011;11993;48.748;9.166;2023-01-08T10:54:22;2.03;;;1.35;;
23632;SDS011;11993;48.748;9.166;2023-01-08T10:56:56;1.48;;;1.20;;
23632;SDS011;11993;48.748;9.166;2023-01-08T10:59:22;1.60;;;1.23;;
23632;SDS011;11993;48.748;9.166;2023-01-08T11:01:50;3.17;;;1.73;;
23632;SDS011;11993;48.748;9.166;2023-01-08T11:04:21;2.53;;;1.20;;
23632;SDS011;11993;48.748;9.166;2023-01-08T11:06:47;1.40;;;1.15;;
23632;SDS011;11993;48.748;9.166;2023-01-08T11:09:21;1.42;;;0.80;;
23632;SDS011;11993;48.748;9.166;2023-01-08T11:11:49;2.67;;;1.50;;
23632;SDS011;11993;48.748;9.166;2023-01-08T11:14:33;1.13;;;0.98;;
23632;SDS011;11993;48.748;9.166;2023-01-08T11:16:59;2.80;;;1.15;;
23632;SDS011;11993;48.748;9.166;2023-01-08T11:19:32;1.45;;;1.10;;
23632;SDS011;11993;48.748;9.166;2023-01-08T11:21:59;2.42;;;1.23;;
23632;SDS011;11993;48.748;9.166;2023-01-08T11:27:00;1.40;;;0.95;;
23632;SDS011;11993;48.748;9.166;2023-01-08T11:35:19;1.33;;;0.90;;
23632;SDS011;11993;48.748;9.166;2023-01-08T11:37:49;1.40;;;1.00;;
23632;SDS011;11993;48.748;9.166;2023-01-08T11:40:16;1.98;;;1.20;;
23632;SDS011;11993;48.748;9.166;2023-01-08T11:45:36;1.95;;;0.98;;
23632;SDS011;11993;48.748;9.166;2023-01-08T11:48:30;1.20;;;1.05;;
23632;SDS011;11993;48.748;9.166;2023-01-08T11:54:11;1.38;;;1.10;;
23632;SDS011;11993;48.748;9.166;2023-01-08T11:59:15;1.10;;;0.95;;
23632;SDS011;11993;48.748;9.166;2023-01-08T12:04:25;1.10;;;1.00;;
23632;SDS011;11993;48.748;9.166;2023-01-08T12:07:22;2.17;;;1.30;;
23632;SDS011;11993;48.748;9.166;2023-01-08T12:09:57;1.23;;;1.00;;
23632;SDS011;11993;48.748;9.166;2023-01-08T12:12:47;1.60;;;1.05;;
23632;SDS011;11993;48.748;9.166;2023-01-08T12:18:31;2.15;;;1.10;;
23632;SDS011;11993;48.748;9.166;2023-01-08T12:26:47;1.10;;;0.90;;
23632;SDS011;11993;48.748;9.166;2023-01-08T12:29:33;33.95;;;11.50;;
23632;SDS011;11993;48.748;9.166;2023-01-08T12:32:22;7.20;;;3.88;;
23632;SDS011;11993;48.748;9.166;2023-01-08T12:34:55;7.03;;;4.30;;
23632;SDS011;11993;48.748;9.166;2023-01-08T12:37:30;28.30;;;9.90;;
23632;SDS011;11993;48.748;9.166;2023-01-08T12:40:23;12.88;;;6.13;;
23632;SDS011;11993;48.748;9.166;2023-01-08T12:42:55;10.13;;;6.18;;
23632;SDS011;11993;48.748;9.166;2023-01-08T12:45:25;5.43;;;3.22;;
23632;SDS011;11993;48.748;9.166;2023-01-08T12:48:16;3.72;;;1.75;;
23632;SDS011;11993;48.748;9.166;2023-01-08T12:50:51;1.35;;;0.73;;
23632;SDS011;11993;48.748;9.166;2023-01-08T12:54:01;0.70;;;0.70;;
23632;SDS011;11993;48.748;9.166;2023-01-08T12:56:43;0.75;;;0.75;;
23632;SDS011;11993;48.748;9.166;2023-01-08T13:04:56;1.20;;;0.93;;
23632;SDS011;11993;48.748;9.166;2023-01-08T13:07:23;2.42;;;1.02;;
23632;SDS011;11993;48.748;9.166;2023-01-08T13:09:53;0.98;;;0.80;;
23632;SDS011;11993;48.748;9.166;2023-01-08T13:12:32;2.00;;;1.20;;
23632;SDS011;11993;48.748;9.166;2023-01-08T13:15:02;1.00;;;0.90;;
23632;SDS011;11993;48.748;9.166;2023-01-08T13:17:29;0.70;;;0.70;;
23632;SDS011;11993;48.748;9.166;2023-01-08T13:19:58;1.55;;;1.10;;
23632;SDS011;11993;48.748;9.166;2023-01-08T13:22:30;1.30;;;1.00;;
23632;SDS011;11993;48.748;9.166;2023-01-08T13:27:39;2.15;;;1.55;;
23632;SDS011;11993;48.748;9.166;2023-01-08T13:30:28;1.20;;;1.10;;
23632;SDS011;11993;48.748;9.166;2023-01-08T13:32:56;1.20;;;1.02;;
23632;SDS011;11993;48.748;9.166;2023-01-08T13:35:23;2.78;;;1.20;;
23632;SDS011;11993;48.748;9.166;2023-01-08T13:43:13;1.10;;;1.00;;
23632;SDS011;11993;48.748;9.166;2023-01-08T13:45:43;4.03;;;2.00;;
23632;SDS011;11993;48.748;9.166;2023-01-08T13:48:21;1.70;;;1.40;;
23632;SDS011;11993;48.748;9.166;2023-01-08T13:50:48;4.18;;;2.15;;
23632;SDS011;11993;48.748;9.166;2023-01-08T13:53:14;5.32;;;2.92;;
23632;SDS011;11993;48.748;9.166;2023-01-08T13:55:40;4.07;;;2.03;;
23632;SDS011;11993;48.748;9.166;2023-01-08T13:58:14;2.55;;;1.38;;
23632;SDS011;11993;48.748;9.166;2023-01-08T14:00:52;5.72;;;2.70;;
23632;SDS011;11993;48.748;9.166;2023-01-08T14:08:50;5.53;;;2.42;;
23632;SDS011;11993;48.748;9.166;2023-01-08T14:11:17;7.57;;;3.47;;
23632;SDS011;11993;48.748;9.166;2023-01-08T14:13:46;17.02;;;7.15;;
23632;SDS011;11993;48.748;9.166;2023-01-08T14:16:14;6.13;;;2.47;;
23632;SDS011;11993;48.748;9.166;2023-01-08T14:18:44;3.75;;;2.00;;
23632;SDS011;11993;48.748;9.166;2023-01-08T14:21:10;1.67;;;1.10;;
23632;SDS011;11993;48.748;9.166;2023-01-08T14:23:41;2.70;;;1.50;;
23632;SDS011;11993;48.748;9.166;2023-01-08T14:26:15;4.95;;;2.38;;
23632;SDS011;11993;48.748;9.166;2023-01-08T14:28:50;4.60;;;2.17;;
23632;SDS011;11993;48.748;9.166;2023-01-08T14:31:21;2.58;;;1.42;;
23632;SDS011;11993;48.748;9.166;2023-01-08T14:33:48;3.15;;;1.73;;
23632;SDS011;11993;48.748;9.166;2023-01-08T14:36:14;1.77;;;1.38;;
23632;SDS011;11993;48.748;9.166;2023-01-08T14:38:41;1.40;;;1.05;;
23632;SDS011;11993;48.748;9.166;2023-01-08T14:41:08;1.77;;;1.08;;
23632;SDS011;11993;48.748;9.166;2023-01-08T14:43:44;1.88;;;1.00;;
23632;SDS011;11993;48.748;9.166;2023-01-08T14:46:16;0.65;;;0.63;;
23632;SDS011;11993;48.748;9.166;2023-01-08T14:48:48;0.60;;;0.60;;
23632;SDS011;11993;48.748;9.166;2023-01-08T14:51:14;1.70;;;0.88;;
23632;SDS011;11993;48.748;9.166;2023-01-08T14:53:47;0.90;;;0.73;;
23632;SDS011;11993;48.748;9.166;2023-01-08T14:56:17;1.35;;;0.80;;
23632;SDS011;11993;48.748;9.166;2023-01-08T14:58:46;1.40;;;1.02;;
23632;SDS011;11993;48.748;9.166;2023-01-08T15:01:16;1.98;;;1.00;;
23632;SDS011;11993;48.748;9.166;2023-01-08T15:03:44;2.47;;;1.65;;
23632;SDS011;11993;48.748;9.166;2023-01-08T15:06:21;1.77;;;1.20;;
23632;SDS011;11993;48.748;9.166;2023-01-08T15:08:51;1.88;;;0.98;;
23632;SDS011;11993;48.748;9.166;2023-01-08T15:13:42;1.73;;;1.38;;
23632;SDS011;11993;48.748;9.166;2023-01-08T15:16:15;1.02;;;0.70;;
23632;SDS011;11993;48.748;9.166;2023-01-08T15:19:12;1.13;;;0.70;;
23632;SDS011;11993;48.748;9.166;2023-01-08T15:21:44;1.50;;;0.80;;
23632;SDS011;11993;48.748;9.166;2023-01-08T15:24:22;1.10;;;0.75;;
23632;SDS011;11993;48.748;9.166;2023-01-08T15:26:54;1.13;;;0.70;;
23632;SDS011;11993;48.748;9.166;2023-01-08T15:29:26;1.13;;;1.00;;
23632;SDS011;11993;48.748;9.166;2023-01-08T15:32:58;1.25;;;1.15;;
23632;SDS011;11993;48.748;9.166;2023-01-08T15:35:01;0.80;;;0.80;;
23632;SDS011;11993;48.748;9.166;2023-01-08T15:37:37;1.58;;;0.95;;
23632;SDS011;11993;48.748;9.166;2023-01-08T15:40:03;0.70;;;0.70;;
23632;SDS011;11993;48.748;9.166;2023-01-08T15:42:29;1.48;;;0.85;;
23632;SDS011;11993;48.748;9.166;2023-01-08T15:45:19;2.30;;;1.38;;
23632;SDS011;11993;48.748;9.166;2023-01-08T15:47:46;2.72;;;1.15;;
23632;SDS011;11993;48.748;9.166;2023-01-08T15:50:12;1.40;;;0.93;;
23632;SDS011;11993;48.748;9.166;2023-01-08T15:52:39;1.40;;;1.00;;
23632;SDS011;11993;48.748;9.166;2023-01-08T15:55:06;1.33;;;0.95;;
23632;SDS011;11993;48.748;9.166;2023-01-08T15:57:38;1.48;;;0.90;;
23632;SDS011;11993;48.748;9.166;2023-01-08T16:00:04;1.23;;;1.00;;